Time;durP1;ratioP1;P1;durP2;ratioP2;P2;SDS_P1;SDS_P2;PMS_P1;PMS_P2;Temp;Humidity;BMP_temperature;BMP_pressure;BME280_temperature;BME280_humidity;BME280_pressure;Samples;Min_cycle;Max_cycle;Signal;HPM_P1;HPM_P2
2023/09/04 00:00:56;;;;;;;7.50;5.38;;;;;;;;;;5040690;28;20068;-56
2023/09/04 00:03:24;;;;;;;12.40;5.47;;;;;;;;;;5042634;28;20088;-60
2023/09/04 00:05:51;;;;;;;5.93;4.97;;;;;;;;;;5039249;28;20116;-60
2023/09/04 00:08:17;;;;;;;7.57;5.22;;;;;;;;;;5042911;28;20131;-59
2023/09/04 00:10:44;;;;;;;7.40;5.68;;;;;;;;;;5041473;28;20871;-61
2023/09/04 00:13:11;;;;;;;7.30;5.18;;;;;;;;;;5039782;28;20432;-61
2023/09/04 00:15:38;;;;;;;6.13;5.00;;;;;;;;;;5046077;28;20081;-61
2023/09/04 00:18:05;;;;;;;5.75;5.13;;;;;;;;;;5037208;28;20088;-59
2023/09/04 00:20:31;;;;;;;5.95;5.35;;;;;;;;;;5033945;28;20598;-61
2023/09/04 00:22:58;;;;;;;7.35;5.30;;;;;;;;;;5041846;28;20561;-60
2023/09/04 00:25:24;;;;;;;8.25;5.13;;;;;;;;;;5040550;28;20139;-61
2023/09/04 00:27:50;;;;;;;5.72;4.88;;;;;;;;;;5045376;28;20056;-61
2023/09/04 00:30:17;;;;;;;7.20;5.57;;;;;;;;;;5036243;28;20140;-61
2023/09/04 00:32:43;;;;;;;6.57;5.18;;;;;;;;;;5038758;28;20137;-59
2023/09/04 00:35:13;;;;;;;11.93;5.18;;;;;;;;;;5038670;28;20061;-61
2023/09/04 00:37:42;;;;;;;5.90;5.10;;;;;;;;;;5046539;28;20054;-59
2023/09/04 00:40:09;;;;;;;6.50;5.35;;;;;;;;;;5040206;28;20512;-59
2023/09/04 00:42:35;;;;;;;5.18;4.68;;;;;;;;;;5057499;28;20140;-59
2023/09/04 00:45:02;;;;;;;7.15;5.32;;;;;;;;;;5033857;28;20639;-60
2023/09/04 00:47:29;;;;;;;6.20;4.60;;;;;;;;;;5036040;28;20064;-60
2023/09/04 00:49:56;;;;;;;9.05;5.30;;;;;;;;;;5044904;28;20057;-60
2023/09/04 00:52:23;;;;;;;10.43;5.68;;;;;;;;;;5034861;28;20169;-61
2023/09/04 00:54:50;;;;;;;7.30;4.90;;;;;;;;;;5032007;28;20108;-61
2023/09/04 00:57:18;;;;;;;5.32;4.82;;;;;;;;;;5036342;28;20144;-59
2023/09/04 00:59:45;;;;;;;6.30;4.32;;;;;;;;;;5044509;28;20100;-57
2023/09/04 01:02:13;;;;;;;6.18;4.80;;;;;;;;;;5043881;28;20148;-57
2023/09/04 01:04:40;;;;;;;5.75;5.18;;;;;;;;;;5039438;28;20053;-61
2023/09/04 01:07:06;;;;;;;9.27;5.40;;;;;;;;;;5026341;28;20057;-60
2023/09/04 01:09:33;;;;;;;5.30;4.38;;;;;;;;;;5041432;28;20158;-60
2023/09/04 01:12:04;;;;;;;8.43;5.85;;;;;;;;;;5044629;28;20062;-61
2023/09/04 01:14:32;;;;;;;6.30;5.05;;;;;;;;;;5044881;28;20421;-62
2023/09/04 01:16:58;;;;;;;9.38;5.18;;;;;;;;;;5044593;28;20152;-59
2023/09/04 01:19:25;;;;;;;5.05;4.55;;;;;;;;;;5043365;28;20591;-61
2023/09/04 01:21:51;;;;;;;5.88;4.82;;;;;;;;;;5042163;28;20073;-61
2023/09/04 01:24:18;;;;;;;6.40;4.68;;;;;;;;;;5043627;28;20439;-60
2023/09/04 01:26:47;;;;;;;5.20;4.70;;;;;;;;;;5043019;28;20350;-56
2023/09/04 01:29:19;;;;;;;8.80;5.05;;;;;;;;;;5043977;28;20163;-60
2023/09/04 01:32:05;;;;;;;6.05;4.82;;;;;;;;;;5043357;28;20551;-60
2023/09/04 01:34:34;;;;;;;5.13;4.63;;;;;;;;;;5038573;28;20056;-60
2023/09/04 01:37:01;;;;;;;7.93;5.78;;;;;;;;;;5044248;28;20081;-60
2023/09/04 01:39:27;;;;;;;13.32;6.28;;;;;;;;;;5043259;28;20530;-61
2023/09/04 01:41:55;;;;;;;8.65;5.82;;;;;;;;;;5041211;28;20176;-58
2023/09/04 01:44:21;;;;;;;11.55;6.68;;;;;;;;;;5044519;28;20084;-61
2023/09/04 01:46:48;;;;;;;12.02;6.20;;;;;;;;;;5041947;28;20081;-56
2023/09/04 01:49:14;;;;;;;10.40;6.32;;;;;;;;;;5043365;28;20057;-61
2023/09/04 01:51:41;;;;;;;9.65;6.43;;;;;;;;;;5046857;28;20057;-61
2023/09/04 01:54:08;;;;;;;7.88;5.93;;;;;;;;;;5031943;28;20046;-61
2023/09/04 01:56:34;;;;;;;9.50;6.18;;;;;;;;;;5044987;28;20509;-56
2023/09/04 01:59:00;;;;;;;8.35;5.82;;;;;;;;;;5035935;28;20653;-61
2023/09/04 02:01:27;;;;;;;6.82;5.40;;;;;;;;;;5046445;28;20053;-60
2023/09/04 02:03:54;;;;;;;6.40;5.60;;;;;;;;;;5032291;28;20064;-60
2023/09/04 02:06:26;;;;;;;8.82;5.60;;;;;;;;;;5044134;28;20054;-61
2023/09/04 02:08:52;;;;;;;5.88;4.45;;;;;;;;;;5043526;28;20139;-59
2023/09/04 02:11:19;;;;;;;6.05;5.28;;;;;;;;;;5043789;28;20053;-59
2023/09/04 02:13:45;;;;;;;8.25;4.97;;;;;;;;;;5036490;28;20053;-61
2023/09/04 02:16:12;;;;;;;8.10;4.72;;;;;;;;;;5031353;28;20053;-61
2023/09/04 02:18:39;;;;;;;11.23;5.57;;;;;;;;;;5059814;28;20083;-61
2023/09/04 02:21:05;;;;;;;10.45;5.38;;;;;;;;;;5040228;28;20085;-58
2023/09/04 02:23:32;;;;;;;6.00;4.78;;;;;;;;;;5044025;28;20053;-61
2023/09/04 02:25:58;;;;;;;8.02;5.07;;;;;;;;;;5041505;28;20057;-61
2023/09/04 02:28:25;;;;;;;6.20;5.25;;;;;;;;;;5043950;28;20145;-60
2023/09/04 02:30:51;;;;;;;5.72;4.85;;;;;;;;;;5043742;28;20057;-60
2023/09/04 02:33:18;;;;;;;8.00;5.80;;;;;;;;;;5028986;28;20089;-57
2023/09/04 02:35:44;;;;;;;8.23;5.30;;;;;;;;;;5037081;28;20507;-60
2023/09/04 02:38:11;;;;;;;7.95;5.20;;;;;;;;;;5043390;28;20120;-61
2023/09/04 02:40:37;;;;;;;5.75;5.20;;;;;;;;;;5043775;28;20053;-60
2023/09/04 02:43:03;;;;;;;5.80;5.25;;;;;;;;;;5032231;28;20064;-61
2023/09/04 02:45:31;;;;;;;6.00;5.40;;;;;;;;;;5024619;28;20133;-61
2023/09/04 02:47:58;;;;;;;6.97;6.07;;;;;;;;;;5029724;28;20143;-60
2023/09/04 02:50:24;;;;;;;5.90;5.30;;;;;;;;;;5042807;28;20055;-58
2023/09/04 02:52:51;;;;;;;6.60;5.90;;;;;;;;;;5040488;28;20081;-60
2023/09/04 02:55:17;;;;;;;7.07;5.97;;;;;;;;;;5037681;28;20108;-61
2023/09/04 02:57:43;;;;;;;7.20;5.90;;;;;;;;;;5043399;28;20108;-61
2023/09/04 03:00:10;;;;;;;8.23;6.05;;;;;;;;;;5043252;28;20050;-60
2023/09/04 03:02:38;;;;;;;9.35;6.70;;;;;;;;;;5034470;28;20049;-59
2023/09/04 03:05:04;;;;;;;10.15;5.95;;;;;;;;;;5043855;28;20056;-58
2023/09/04 03:07:31;;;;;;;7.75;5.55;;;;;;;;;;5043560;28;20084;-61
2023/09/04 03:09:58;;;;;;;7.95;6.35;;;;;;;;;;5041833;28;20115;-61
2023/09/04 03:12:34;;;;;;;6.75;5.88;;;;;;;;;;5044134;28;20524;-60
2023/09/04 03:15:03;;;;;;;7.15;6.30;;;;;;;;;;5041794;28;20285;-61
2023/09/04 03:17:30;;;;;;;7.03;5.50;;;;;;;;;;5042472;28;20053;-58
2023/09/04 03:19:57;;;;;;;7.25;5.68;;;;;;;;;;5037830;28;20053;-57
2023/09/04 03:22:24;;;;;;;7.95;5.97;;;;;;;;;;5043614;28;20056;-60
2023/09/04 03:24:51;;;;;;;7.75;5.30;;;;;;;;;;5032474;28;20588;-60
2023/09/04 03:27:18;;;;;;;8.38;5.82;;;;;;;;;;5035762;28;20606;-60
2023/09/04 03:29:44;;;;;;;7.43;5.35;;;;;;;;;;5033003;28;20065;-59
2023/09/04 03:32:11;;;;;;;6.72;5.97;;;;;;;;;;5045207;28;20637;-60
2023/09/04 03:34:38;;;;;;;6.68;5.88;;;;;;;;;;5042905;28;20109;-59
2023/09/04 03:37:05;;;;;;;9.32;6.22;;;;;;;;;;5038257;28;20053;-53
2023/09/04 03:39:36;;;;;;;6.03;5.43;;;;;;;;;;5043488;28;20064;-59
2023/09/04 03:42:04;;;;;;;7.07;5.65;;;;;;;;;;5043206;28;20057;-59
2023/09/04 03:44:31;;;;;;;8.07;6.07;;;;;;;;;;5043642;28;20054;-58
2023/09/04 03:46:57;;;;;;;6.85;5.90;;;;;;;;;;5043233;28;20489;-59
2023/09/04 03:49:23;;;;;;;8.73;5.82;;;;;;;;;;5042829;28;20634;-60
2023/09/04 03:51:50;;;;;;;6.40;5.75;;;;;;;;;;5049914;28;20175;-58
2023/09/04 03:54:16;;;;;;;6.47;5.85;;;;;;;;;;5059844;28;20693;-60
2023/09/04 03:56:43;;;;;;;8.27;5.82;;;;;;;;;;5043324;28;20521;-60
2023/09/04 03:59:09;;;;;;;7.43;5.97;;;;;;;;;;5031006;28;20046;-60
2023/09/04 04:01:36;;;;;;;8.98;5.63;;;;;;;;;;5042878;28;20144;-60
2023/09/04 04:04:02;;;;;;;5.88;5.28;;;;;;;;;;5042388;28;20415;-60
2023/09/04 04:06:29;;;;;;;10.55;5.85;;;;;;;;;;5037714;28;20045;-57
2023/09/04 04:08:56;;;;;;;7.13;6.20;;;;;;;;;;5043486;28;20535;-60
2023/09/04 04:11:22;;;;;;;6.75;5.65;;;;;;;;;;5042502;28;20539;-63
2023/09/04 04:13:49;;;;;;;6.65;5.50;;;;;;;;;;5042669;28;20057;-61
2023/09/04 04:16:15;;;;;;;6.60;5.95;;;;;;;;;;5040469;28;20081;-62
2023/09/04 04:18:42;;;;;;;6.72;5.80;;;;;;;;;;5037724;28;20140;-60
2023/09/04 04:21:08;;;;;;;6.47;5.88;;;;;;;;;;5038674;28;20515;-59
2023/09/04 04:23:35;;;;;;;6.53;5.43;;;;;;;;;;5042809;28;20063;-58
2023/09/04 04:26:01;;;;;;;8.57;6.10;;;;;;;;;;5042402;28;20164;-57
2023/09/04 04:28:28;;;;;;;7.25;6.55;;;;;;;;;;5033792;28;20064;-59
2023/09/04 04:30:57;;;;;;;7.20;5.97;;;;;;;;;;5028409;28;20054;-59
2023/09/04 04:33:23;;;;;;;7.13;5.63;;;;;;;;;;5036990;28;20097;-56
2023/09/04 04:35:55;;;;;;;7.55;6.25;;;;;;;;;;5027362;28;20500;-60
2023/09/04 04:38:22;;;;;;;10.32;5.88;;;;;;;;;;5036611;28;20522;-59
2023/09/04 04:40:49;;;;;;;6.57;5.85;;;;;;;;;;5037341;28;20059;-61
2023/09/04 04:43:15;;;;;;;7.55;5.47;;;;;;;;;;5035476;28;20060;-60
2023/09/04 04:45:41;;;;;;;6.60;5.70;;;;;;;;;;5035805;28;20050;-60
2023/09/04 04:48:08;;;;;;;7.78;5.68;;;;;;;;;;5028135;28;20108;-60
2023/09/04 04:50:34;;;;;;;7.70;5.60;;;;;;;;;;5036161;28;20046;-58
2023/09/04 04:53:01;;;;;;;10.27;5.30;;;;;;;;;;5037834;28;20938;-60
2023/09/04 04:55:27;;;;;;;7.22;5.53;;;;;;;;;;5034510;28;20501;-60
2023/09/04 04:57:53;;;;;;;7.60;6.25;;;;;;;;;;5042258;28;20061;-59
2023/09/04 05:00:20;;;;;;;9.85;5.78;;;;;;;;;;5042176;28;20542;-59
2023/09/04 05:02:46;;;;;;;7.43;5.80;;;;;;;;;;5042490;28;20096;-60
2023/09/04 05:05:13;;;;;;;7.90;6.30;;;;;;;;;;5041422;28;20060;-60
2023/09/04 05:07:41;;;;;;;9.77;6.22;;;;;;;;;;5045493;28;20049;-59
2023/09/04 05:10:09;;;;;;;10.68;6.05;;;;;;;;;;5045449;28;20064;-56
2023/09/04 05:12:36;;;;;;;6.40;5.80;;;;;;;;;;5045750;28;20128;-55
2023/09/04 05:15:03;;;;;;;10.57;5.68;;;;;;;;;;5039364;28;20080;-59
2023/09/04 05:17:30;;;;;;;6.65;5.53;;;;;;;;;;5034597;28;20049;-60
2023/09/04 05:19:56;;;;;;;8.50;6.07;;;;;;;;;;5043913;28;20497;-60
2023/09/04 05:22:23;;;;;;;10.43;6.03;;;;;;;;;;5044182;28;20053;-59
2023/09/04 05:24:49;;;;;;;7.57;6.38;;;;;;;;;;5044530;28;20472;-58
2023/09/04 05:27:16;;;;;;;6.38;5.53;;;;;;;;;;5042356;28;20058;-60
2023/09/04 05:29:42;;;;;;;7.03;6.28;;;;;;;;;;5039702;28;20055;-60
2023/09/04 05:32:08;;;;;;;7.30;6.05;;;;;;;;;;5044664;28;20120;-59
2023/09/04 05:34:39;;;;;;;9.63;6.68;;;;;;;;;;5044104;28;20057;-53
2023/09/04 05:37:07;;;;;;;7.88;5.82;;;;;;;;;;5033198;28;20670;-60
2023/09/04 05:39:33;;;;;;;8.07;6.80;;;;;;;;;;5030507;28;20081;-60
2023/09/04 05:42:00;;;;;;;8.65;6.72;;;;;;;;;;5044793;28;20057;-61
2023/09/04 05:44:26;;;;;;;8.43;6.82;;;;;;;;;;5038237;28;20209;-60
2023/09/04 05:46:53;;;;;;;8.00;6.88;;;;;;;;;;5038840;28;20085;-56
2023/09/04 05:49:19;;;;;;;8.63;6.93;;;;;;;;;;5043411;28;20061;-59
2023/09/04 05:51:46;;;;;;;7.30;6.57;;;;;;;;;;5039474;28;20054;-61
2023/09/04 05:54:12;;;;;;;9.77;7.05;;;;;;;;;;5034538;28;20145;-60
2023/09/04 05:56:39;;;;;;;9.48;6.85;;;;;;;;;;5040257;28;20149;-57
2023/09/04 05:59:05;;;;;;;9.70;6.85;;;;;;;;;;5042813;28;20107;-58
2023/09/04 06:01:32;;;;;;;7.45;6.47;;;;;;;;;;5031086;28;20053;-60
2023/09/04 06:03:58;;;;;;;9.02;7.18;;;;;;;;;;5044126;28;20073;-60
2023/09/04 06:06:25;;;;;;;13.85;7.60;;;;;;;;;;5043718;28;20132;-60
2023/09/04 06:08:51;;;;;;;9.95;6.82;;;;;;;;;;5033376;28;20452;-60
2023/09/04 06:11:17;;;;;;;9.40;7.13;;;;;;;;;;5041870;28;20088;-61
2023/09/04 06:13:44;;;;;;;12.93;8.15;;;;;;;;;;5052812;28;20155;-58
2023/09/04 06:16:12;;;;;;;9.23;8.07;;;;;;;;;;5041094;28;21071;-60
2023/09/04 06:18:39;;;;;;;9.27;7.20;;;;;;;;;;5035413;28;20049;-60
2023/09/04 06:21:05;;;;;;;9.20;7.75;;;;;;;;;;5038449;28;20138;-58
2023/09/04 06:23:32;;;;;;;10.13;7.95;;;;;;;;;;5039270;28;20203;-60
2023/09/04 06:26:02;;;;;;;13.20;8.45;;;;;;;;;;5038986;28;20049;-60
2023/09/04 06:28:28;;;;;;;15.50;8.90;;;;;;;;;;5038404;28;20499;-60
2023/09/04 06:30:55;;;;;;;13.65;8.70;;;;;;;;;;5041588;28;20337;-61
2023/09/04 06:33:24;;;;;;;9.65;8.30;;;;;;;;;;5031508;28;20519;-60
2023/09/04 06:35:50;;;;;;;9.32;8.23;;;;;;;;;;5043938;28;20599;-61
2023/09/04 06:38:16;;;;;;;13.02;8.93;;;;;;;;;;5042107;28;20666;-59
2023/09/04 06:40:43;;;;;;;15.25;10.13;;;;;;;;;;5034073;28;20073;-61
2023/09/04 06:43:09;;;;;;;11.30;8.27;;;;;;;;;;5036625;28;20089;-61
2023/09/04 06:45:37;;;;;;;10.85;8.35;;;;;;;;;;5040231;28;20133;-60
2023/09/04 06:48:07;;;;;;;9.43;8.25;;;;;;;;;;5043593;28;20049;-60
2023/09/04 06:50:34;;;;;;;10.50;8.27;;;;;;;;;;5043219;28;20057;-57
2023/09/04 06:53:03;;;;;;;10.02;7.88;;;;;;;;;;5041997;28;20057;-61
2023/09/04 06:55:30;;;;;;;8.98;7.90;;;;;;;;;;5043173;28;20149;-61
2023/09/04 06:57:56;;;;;;;11.60;8.00;;;;;;;;;;5043405;28;20073;-60
2023/09/04 07:00:23;;;;;;;10.95;8.05;;;;;;;;;;5045509;28;20060;-61
2023/09/04 07:02:49;;;;;;;9.65;8.02;;;;;;;;;;5042295;28;20065;-62
2023/09/04 07:05:17;;;;;;;11.50;8.15;;;;;;;;;;5039247;28;20469;-60
2023/09/04 07:07:47;;;;;;;9.95;8.27;;;;;;;;;;5049968;28;20053;-60
2023/09/04 07:10:13;;;;;;;10.98;8.43;;;;;;;;;;5036450;28;20136;-60
2023/09/04 07:12:40;;;;;;;9.20;7.95;;;;;;;;;;5041467;28;20953;-60
2023/09/04 07:15:07;;;;;;;11.95;7.30;;;;;;;;;;5047110;28;20057;-61
2023/09/04 07:17:33;;;;;;;9.50;7.53;;;;;;;;;;5047116;28;20049;-61
2023/09/04 07:20:00;;;;;;;8.80;7.72;;;;;;;;;;5043709;28;20168;-60
2023/09/04 07:22:27;;;;;;;8.55;7.65;;;;;;;;;;5057404;28;20051;-60
2023/09/04 07:24:53;;;;;;;14.63;8.20;;;;;;;;;;5052318;28;20058;-61
2023/09/04 07:27:20;;;;;;;11.73;8.20;;;;;;;;;;5042344;28;20560;-61
2023/09/04 07:29:46;;;;;;;10.95;8.60;;;;;;;;;;5042274;28;20050;-60
2023/09/04 07:32:13;;;;;;;10.70;8.38;;;;;;;;;;5043835;28;20568;-58
2023/09/04 07:34:39;;;;;;;12.43;8.63;;;;;;;;;;5042482;28;20571;-62
2023/09/04 07:37:06;;;;;;;12.25;8.50;;;;;;;;;;5042876;28;20113;-58
2023/09/04 07:39:32;;;;;;;13.30;9.38;;;;;;;;;;5034645;28;20586;-60
2023/09/04 07:41:59;;;;;;;11.32;8.25;;;;;;;;;;5042143;28;20173;-61
2023/09/04 07:44:25;;;;;;;10.80;8.70;;;;;;;;;;5042410;28;20060;-60
2023/09/04 07:46:52;;;;;;;10.95;8.98;;;;;;;;;;5040786;28;20123;-61
2023/09/04 07:49:19;;;;;;;10.70;7.50;;;;;;;;;;5042524;28;20049;-62
2023/09/04 07:51:46;;;;;;;19.77;9.45;;;;;;;;;;5041167;28;20057;-61
2023/09/04 07:54:15;;;;;;;13.20;8.82;;;;;;;;;;5039433;28;20838;-62
2023/09/04 07:56:41;;;;;;;12.48;8.85;;;;;;;;;;5040821;28;20054;-61
2023/09/04 07:59:09;;;;;;;11.27;8.70;;;;;;;;;;5034463;28;20146;-59
2023/09/04 08:01:35;;;;;;;9.45;8.32;;;;;;;;;;5041656;28;20054;-58
2023/09/04 08:04:02;;;;;;;20.10;9.40;;;;;;;;;;5044288;28;20805;-57
2023/09/04 08:06:28;;;;;;;9.85;8.48;;;;;;;;;;5046636;28;20104;-61
2023/09/04 08:08:55;;;;;;;11.55;8.70;;;;;;;;;;5041427;28;20979;-61
2023/09/04 08:11:22;;;;;;;13.07;9.07;;;;;;;;;;5036093;28;20054;-61
2023/09/04 08:13:48;;;;;;;10.98;8.35;;;;;;;;;;5042551;28;20069;-61
2023/09/04 08:16:15;;;;;;;16.38;9.02;;;;;;;;;;5038953;28;20108;-61
2023/09/04 08:18:41;;;;;;;12.60;9.18;;;;;;;;;;5044087;28;20111;-61
2023/09/04 08:21:08;;;;;;;9.40;8.10;;;;;;;;;;5041677;28;20504;-60
2023/09/04 08:23:35;;;;;;;9.73;8.77;;;;;;;;;;5042737;28;20141;-61
2023/09/04 08:26:02;;;;;;;10.13;8.52;;;;;;;;;;5041825;28;20165;-62
2023/09/04 08:28:29;;;;;;;10.82;9.02;;;;;;;;;;5032763;28;20118;-62
2023/09/04 08:30:56;;;;;;;11.00;9.27;;;;;;;;;;5027970;28;20049;-61
2023/09/04 08:33:22;;;;;;;10.77;8.48;;;;;;;;;;5057938;28;20126;-62
2023/09/04 08:35:50;;;;;;;9.93;8.38;;;;;;;;;;5045924;28;20427;-60
2023/09/04 08:38:17;;;;;;;18.70;8.93;;;;;;;;;;5043520;28;20058;-61
2023/09/04 08:40:43;;;;;;;8.98;7.85;;;;;;;;;;5031243;28;20050;-61
2023/09/04 08:43:10;;;;;;;13.00;9.13;;;;;;;;;;5037426;28;20049;-62
2023/09/04 08:45:39;;;;;;;14.48;8.90;;;;;;;;;;5046470;28;20055;-60
2023/09/04 08:48:07;;;;;;;11.98;8.75;;;;;;;;;;5043746;28;20077;-60
2023/09/04 08:50:33;;;;;;;11.75;9.02;;;;;;;;;;5039078;28;20148;-61
2023/09/04 08:53:00;;;;;;;13.27;9.15;;;;;;;;;;5062544;28;20195;-60
2023/09/04 08:55:27;;;;;;;13.18;9.50;;;;;;;;;;5045035;28;20057;-61
2023/09/04 08:57:54;;;;;;;9.68;8.65;;;;;;;;;;5043612;28;20076;-61
2023/09/04 09:00:20;;;;;;;10.90;8.23;;;;;;;;;;5042829;28;20148;-61
2023/09/04 09:02:46;;;;;;;11.30;9.00;;;;;;;;;;5040444;28;20140;-60
2023/09/04 09:05:14;;;;;;;11.73;9.60;;;;;;;;;;5041568;28;20054;-62
2023/09/04 09:07:41;;;;;;;14.65;9.20;;;;;;;;;;5068942;28;20500;-61
2023/09/04 09:10:09;;;;;;;12.50;9.00;;;;;;;;;;5040529;28;20062;-59
2023/09/04 09:12:36;;;;;;;14.05;9.57;;;;;;;;;;5044230;28;20061;-60
2023/09/04 09:15:02;;;;;;;13.40;9.48;;;;;;;;;;5040361;28;20053;-60
2023/09/04 09:17:29;;;;;;;10.55;9.30;;;;;;;;;;5040584;28;20045;-60
2023/09/04 09:19:55;;;;;;;10.75;7.22;;;;;;;;;;5038919;28;20057;-62
2023/09/04 09:22:22;;;;;;;14.80;9.18;;;;;;;;;;5039611;28;20223;-58
2023/09/04 09:24:50;;;;;;;13.10;9.43;;;;;;;;;;5027796;28;20153;-60
2023/09/04 09:27:18;;;;;;;12.05;9.15;;;;;;;;;;5052430;28;20059;-60
2023/09/04 09:29:45;;;;;;;10.93;9.35;;;;;;;;;;5037054;28;20054;-58
2023/09/04 09:32:12;;;;;;;15.90;9.43;;;;;;;;;;5042491;28;20061;-60
2023/09/04 09:34:39;;;;;;;13.23;9.10;;;;;;;;;;5040278;28;20564;-58
2023/09/04 09:37:07;;;;;;;14.27;8.95;;;;;;;;;;5032069;28;20468;-59
2023/09/04 09:39:34;;;;;;;10.60;9.50;;;;;;;;;;5027161;28;20145;-58
2023/09/04 09:42:01;;;;;;;13.30;9.20;;;;;;;;;;5034592;28;20473;-58
2023/09/04 09:44:30;;;;;;;11.13;9.05;;;;;;;;;;5043319;28;20087;-61
2023/09/04 09:46:57;;;;;;;10.38;9.18;;;;;;;;;;5038648;28;20432;-56
2023/09/04 09:49:23;;;;;;;10.52;8.32;;;;;;;;;;5044607;28;20054;-57
2023/09/04 09:51:51;;;;;;;11.45;8.63;;;;;;;;;;5050922;28;20060;-59
2023/09/04 09:54:44;;;;;;;10.43;7.97;;;;;;;;;;5050378;28;20583;-61
2023/09/04 09:57:12;;;;;;;9.02;6.90;;;;;;;;;;5031218;28;20049;-56
2023/09/04 09:59:41;;;;;;;12.45;8.32;;;;;;;;;;5037912;28;20112;-59
2023/09/04 10:02:08;;;;;;;10.80;8.50;;;;;;;;;;5047703;28;20725;-58
2023/09/04 10:04:35;;;;;;;11.30;8.00;;;;;;;;;;5049129;28;20456;-57
2023/09/04 10:07:03;;;;;;;12.02;7.88;;;;;;;;;;5045513;28;20145;-57
2023/09/04 10:09:42;;;;;;;10.25;7.35;;;;;;;;;;5047228;28;20852;-58
2023/09/04 10:12:16;;;;;;;14.43;7.88;;;;;;;;;;5040256;28;20058;-57
2023/09/04 10:14:44;;;;;;;9.23;6.47;;;;;;;;;;5049489;28;20584;-59
2023/09/04 10:17:17;;;;;;;10.18;7.00;;;;;;;;;;5058776;28;20057;-57
2023/09/04 10:19:45;;;;;;;9.85;7.15;;;;;;;;;;5053278;28;20534;-59
2023/09/04 10:22:16;;;;;;;8.98;6.63;;;;;;;;;;5044182;28;20056;-58
2023/09/04 10:25:07;;;;;;;7.90;7.03;;;;;;;;;;5032496;28;20429;-59
2023/09/04 10:27:40;;;;;;;16.13;7.22;;;;;;;;;;5043170;28;20059;-56
2023/09/04 10:30:08;;;;;;;8.32;6.40;;;;;;;;;;5045643;28;20060;-57
2023/09/04 10:32:35;;;;;;;6.05;5.45;;;;;;;;;;5053487;28;20134;-58
2023/09/04 10:35:02;;;;;;;5.97;5.18;;;;;;;;;;5034737;28;20064;-57
2023/09/04 10:37:30;;;;;;;5.85;5.25;;;;;;;;;;5044733;28;20108;-57
2023/09/04 10:39:58;;;;;;;6.90;5.25;;;;;;;;;;5038413;28;20053;-57
2023/09/04 10:42:28;;;;;;;7.53;5.07;;;;;;;;;;5041379;28;20141;-57
2023/09/04 10:44:56;;;;;;;8.57;4.85;;;;;;;;;;5042933;28;20057;-58
2023/09/04 10:47:23;;;;;;;8.75;4.65;;;;;;;;;;5031305;28;20053;-58
2023/09/04 10:49:51;;;;;;;7.63;5.30;;;;;;;;;;5043610;28;20437;-57
2023/09/04 10:52:17;;;;;;;7.68;5.60;;;;;;;;;;5041164;28;20053;-58
2023/09/04 10:54:44;;;;;;;5.32;4.78;;;;;;;;;;5042851;28;20521;-57
2023/09/04 10:57:11;;;;;;;5.10;4.45;;;;;;;;;;5039919;28;20045;-57
2023/09/04 10:59:58;;;;;;;5.90;4.82;;;;;;;;;;5043618;28;20053;-58
2023/09/04 11:02:27;;;;;;;4.70;4.18;;;;;;;;;;5036733;28;20542;-58
2023/09/04 11:04:54;;;;;;;4.40;4.00;;;;;;;;;;5042529;28;20135;-58
2023/09/04 11:07:21;;;;;;;5.75;3.83;;;;;;;;;;5043374;28;20432;-57
2023/09/04 11:09:48;;;;;;;3.33;3.03;;;;;;;;;;5042909;28;20522;-58
2023/09/04 11:12:18;;;;;;;8.70;3.20;;;;;;;;;;5043424;28;20049;-58
2023/09/04 11:14:45;;;;;;;5.05;3.55;;;;;;;;;;5043119;28;20516;-57
2023/09/04 11:17:14;;;;;;;5.70;4.05;;;;;;;;;;5043071;28;20051;-57
2023/09/04 11:19:40;;;;;;;6.22;3.55;;;;;;;;;;5042412;28;20116;-57
2023/09/04 11:22:20;;;;;;;4.38;3.88;;;;;;;;;;5031451;28;20080;-58
2023/09/04 11:24:47;;;;;;;5.57;4.07;;;;;;;;;;5040915;28;20550;-56
2023/09/04 11:27:13;;;;;;;4.95;3.75;;;;;;;;;;5036411;28;20500;-58
2023/09/04 11:29:40;;;;;;;7.75;4.13;;;;;;;;;;5042575;28;20050;-58
2023/09/04 11:32:09;;;;;;;5.18;4.18;;;;;;;;;;5041218;28;20061;-56
2023/09/04 11:34:36;;;;;;;5.78;3.97;;;;;;;;;;5045979;28;20116;-58
2023/09/04 11:37:03;;;;;;;5.75;3.80;;;;;;;;;;5035059;28;20049;-57
2023/09/04 11:39:30;;;;;;;9.13;4.10;;;;;;;;;;5042550;28;20065;-58
2023/09/04 11:41:56;;;;;;;4.47;3.55;;;;;;;;;;5042775;28;20142;-58
2023/09/04 11:44:23;;;;;;;10.93;3.92;;;;;;;;;;5042718;28;20057;-56
2023/09/04 11:46:50;;;;;;;9.07;3.88;;;;;;;;;;5031105;28;20113;-57
2023/09/04 11:49:17;;;;;;;3.63;3.28;;;;;;;;;;5037036;28;20055;-53
2023/09/04 11:51:44;;;;;;;6.85;3.70;;;;;;;;;;5041780;28;20925;-58
2023/09/04 11:54:10;;;;;;;6.15;4.03;;;;;;;;;;5039575;28;20057;-58
2023/09/04 11:56:37;;;;;;;4.32;3.92;;;;;;;;;;5041790;28;20144;-56
2023/09/04 11:59:04;;;;;;;5.55;3.47;;;;;;;;;;5038555;28;20057;-52
2023/09/04 12:01:32;;;;;;;5.57;4.00;;;;;;;;;;5043240;28;20052;-57
2023/09/04 12:04:01;;;;;;;5.75;3.70;;;;;;;;;;5058895;28;20045;-58
2023/09/04 12:06:28;;;;;;;5.78;3.67;;;;;;;;;;5030238;28;20057;-58
2023/09/04 12:08:55;;;;;;;3.40;3.10;;;;;;;;;;5041856;28;20116;-58
2023/09/04 12:11:22;;;;;;;3.95;3.00;;;;;;;;;;5042272;28;20111;-59
2023/09/04 12:13:48;;;;;;;3.70;2.65;;;;;;;;;;5032691;28;20136;-58
2023/09/04 12:16:15;;;;;;;6.15;3.13;;;;;;;;;;5040516;28;20096;-57
2023/09/04 12:18:42;;;;;;;5.63;3.45;;;;;;;;;;5044950;28;20584;-59
2023/09/04 12:21:09;;;;;;;3.92;2.90;;;;;;;;;;5041404;28;20524;-56
2023/09/04 12:23:43;;;;;;;3.80;2.90;;;;;;;;;;5043015;28;20054;-58
2023/09/04 12:26:13;;;;;;;3.72;3.30;;;;;;;;;;5042401;28;20057;-55
2023/09/04 12:28:40;;;;;;;3.63;3.33;;;;;;;;;;5041114;28;20133;-56
2023/09/04 12:31:08;;;;;;;5.07;3.45;;;;;;;;;;5043781;28;20925;-54
2023/09/04 12:33:41;;;;;;;3.88;2.95;;;;;;;;;;5033082;28;20172;-52
2023/09/04 12:36:08;;;;;;;5.18;3.22;;;;;;;;;;5034654;28;20123;-55
2023/09/04 12:38:38;;;;;;;3.95;3.50;;;;;;;;;;5026542;28;20144;-56
2023/09/04 12:41:05;;;;;;;6.05;3.80;;;;;;;;;;5041058;28;20428;-56
2023/09/04 12:43:31;;;;;;;5.15;3.88;;;;;;;;;;5041475;28;20054;-54
2023/09/04 12:45:58;;;;;;;3.75;3.42;;;;;;;;;;5041232;28;20053;-58
2023/09/04 12:48:25;;;;;;;4.35;3.05;;;;;;;;;;5041576;28;20650;-57
2023/09/04 12:50:51;;;;;;;4.18;2.72;;;;;;;;;;5028500;28;20054;-57
2023/09/04 12:53:18;;;;;;;2.70;2.17;;;;;;;;;;5041991;28;20103;-57
2023/09/04 12:55:44;;;;;;;2.97;2.38;;;;;;;;;;5041727;28;20131;-55
2023/09/04 12:58:12;;;;;;;2.53;2.30;;;;;;;;;;5041724;28;20050;-57
2023/09/04 13:00:40;;;;;;;2.72;2.03;;;;;;;;;;5040958;28;20145;-56
2023/09/04 13:03:07;;;;;;;3.53;2.47;;;;;;;;;;5039542;28;20511;-55
2023/09/04 13:05:34;;;;;;;5.57;2.50;;;;;;;;;;5040140;28;20139;-55
2023/09/04 13:08:01;;;;;;;7.80;3.05;;;;;;;;;;5042347;28;20054;-55
2023/09/04 13:10:27;;;;;;;3.47;2.78;;;;;;;;;;5042003;28;20057;-56
2023/09/04 13:12:54;;;;;;;2.45;2.25;;;;;;;;;;5052693;28;20061;-57
2023/09/04 13:15:20;;;;;;;3.17;2.60;;;;;;;;;;5042542;28;20144;-57
2023/09/04 13:17:46;;;;;;;4.30;3.15;;;;;;;;;;5043448;28;20081;-57
2023/09/04 13:20:13;;;;;;;4.90;2.92;;;;;;;;;;5044731;28;20053;-57
2023/09/04 13:22:40;;;;;;;2.72;2.47;;;;;;;;;;5033642;28;20117;-53
2023/09/04 13:25:07;;;;;;;3.65;2.60;;;;;;;;;;5044763;28;20602;-56
2023/09/04 13:27:35;;;;;;;3.40;2.17;;;;;;;;;;5044855;28;20604;-53
2023/09/04 13:30:02;;;;;;;3.80;2.17;;;;;;;;;;5044617;28;20123;-57
2023/09/04 13:32:28;;;;;;;2.88;2.60;;;;;;;;;;5043658;28;20137;-56
2023/09/04 13:34:55;;;;;;;3.90;2.92;;;;;;;;;;5048403;28;20049;-57
2023/09/04 13:37:24;;;;;;;2.65;2.45;;;;;;;;;;5044863;28;20177;-57
2023/09/04 13:39:51;;;;;;;4.00;2.85;;;;;;;;;;5053091;28;20061;-57
2023/09/04 13:42:20;;;;;;;4.55;2.70;;;;;;;;;;5041433;28;20085;-56
2023/09/04 13:44:46;;;;;;;3.15;2.78;;;;;;;;;;5044679;28;20053;-56
2023/09/04 13:47:13;;;;;;;4.05;3.30;;;;;;;;;;5047772;28;20060;-52
2023/09/04 13:49:39;;;;;;;2.63;2.42;;;;;;;;;;5044366;28;20054;-57
2023/09/04 13:52:06;;;;;;;3.80;3.00;;;;;;;;;;5043359;28;20053;-57
2023/09/04 13:54:32;;;;;;;3.20;2.90;;;;;;;;;;5043722;28;21282;-56
2023/09/04 13:56:59;;;;;;;2.90;2.60;;;;;;;;;;5039536;28;20099;-57
2023/09/04 13:59:26;;;;;;;2.50;2.30;;;;;;;;;;5047723;28;20054;-55
2023/09/04 14:01:52;;;;;;;2.95;2.40;;;;;;;;;;5046625;28;20061;-57
2023/09/04 14:04:19;;;;;;;4.03;2.20;;;;;;;;;;5043773;28;20057;-57
2023/09/04 14:06:45;;;;;;;3.60;2.40;;;;;;;;;;5031280;28;20148;-55
2023/09/04 14:09:12;;;;;;;3.10;2.38;;;;;;;;;;5037804;28;20447;-56
2023/09/04 14:11:38;;;;;;;3.97;2.28;;;;;;;;;;5033224;28;20054;-57
2023/09/04 14:14:04;;;;;;;4.20;3.10;;;;;;;;;;5031357;28;20140;-56
2023/09/04 14:16:31;;;;;;;3.45;2.47;;;;;;;;;;5041731;28;20136;-57
2023/09/04 14:18:57;;;;;;;4.18;2.72;;;;;;;;;;5043359;28;20085;-56
2023/09/04 14:21:33;;;;;;;4.30;2.67;;;;;;;;;;5036574;28;20050;-57
2023/09/04 14:24:00;;;;;;;3.50;2.78;;;;;;;;;;5042939;28;20053;-57
2023/09/04 14:26:26;;;;;;;4.28;2.67;;;;;;;;;;5039445;28;20060;-57
2023/09/04 14:28:52;;;;;;;5.43;2.83;;;;;;;;;;5033818;28;20056;-57
2023/09/04 14:31:19;;;;;;;4.82;3.10;;;;;;;;;;5040917;28;20053;-58
2023/09/04 14:33:46;;;;;;;3.97;2.88;;;;;;;;;;5039257;28;20978;-56
2023/09/04 14:36:13;;;;;;;4.03;2.50;;;;;;;;;;5046299;28;20143;-55
2023/09/04 14:38:40;;;;;;;4.28;2.58;;;;;;;;;;5042608;28;20057;-56